Time;durP1;ratioP1;P1;durP2;ratioP2;P2;SDS_P1;SDS_P2;PMS_P1;PMS_P2;Temp;Humidity;BMP_temperature;BMP_pressure;BME280_temperature;BME280_humidity;BME280_pressure;Samples;Min_cycle;Max_cycle;Signal;HPM_P1;HPM_P2
2023/06/25 00:01:46;;;;;;;10.33;8.37;;;23.10;1.00;;;;;;5038018;28;20928;-60
2023/06/25 00:04:13;;;;;;;10.70;8.07;;;23.10;1.00;;;;;;5023822;28;20203;-60
2023/06/25 00:06:40;;;;;;;11.63;8.57;;;23.10;1.00;;;;;;5021993;28;20665;-60
2023/06/25 00:09:06;;;;;;;12.07;9.10;;;23.10;1.00;;;;;;5036972;28;20214;-60
2023/06/25 00:11:34;;;;;;;11.33;8.33;;;22.90;1.00;;;;;;5038968;28;20215;-60
2023/06/25 00:14:03;;;;;;;13.50;8.67;;;22.90;1.00;;;;;;5027588;28;20290;-62
2023/06/25 00:16:33;;;;;;;10.73;8.50;;;22.80;1.00;;;;;;5038754;28;21342;-62
2023/06/25 00:19:03;;;;;;;11.73;8.53;;;22.80;1.00;;;;;;5022491;28;20244;-60
2023/06/25 00:21:30;;;;;;;13.77;9.27;;;22.70;1.00;;;;;;5040480;28;20203;-60
2023/06/25 00:23:57;;;;;;;11.20;8.87;;;22.70;1.00;;;;;;5039786;28;20214;-60
2023/06/25 00:26:24;;;;;;;10.97;8.67;;;22.70;1.00;;;;;;5039558;28;20204;-61
2023/06/25 00:28:51;;;;;;;11.80;8.70;;;22.70;1.00;;;;;;5039094;28;20246;-61
2023/06/25 00:31:18;;;;;;;12.33;9.07;;;22.80;1.00;;;;;;5020092;28;20291;-60
2023/06/25 00:33:49;;;;;;;14.77;9.63;;;22.80;1.00;;;;;;5019557;28;20212;-60
2023/06/25 00:36:16;;;;;;;16.20;10.47;;;22.60;55.50;;;;;;5018193;28;20199;-61
2023/06/25 00:38:44;;;;;;;10.80;9.30;;;22.60;99.90;;;;;;5036783;28;20253;-61
2023/06/25 00:41:11;;;;;;;18.37;10.50;;;22.70;99.90;;;;;;5024879;28;20203;-61
2023/06/25 00:43:41;;;;;;;14.50;9.53;;;22.70;99.90;;;;;;5042228;28;20208;-61
2023/06/25 00:46:15;;;;;;;13.63;9.50;;;22.70;99.90;;;;;;5034220;28;20215;-65
2023/06/25 00:48:47;;;;;;;11.87;9.63;;;22.60;99.90;;;;;;5042101;28;20224;-61
2023/06/25 00:51:17;;;;;;;14.60;10.37;;;22.60;99.90;;;;;;5042572;28;20269;-61
2023/06/25 00:53:44;;;;;;;12.80;10.07;;;22.60;99.90;;;;;;5040389;28;20211;-61
2023/06/25 00:56:12;;;;;;;13.40;10.07;;;22.60;99.90;;;;;;5027114;28;20203;-61
2023/06/25 00:58:40;;;;;;;13.97;10.57;;;22.50;99.90;;;;;;5043361;28;20209;-59
2023/06/25 01:01:15;;;;;;;14.40;10.93;;;22.50;99.90;;;;;;5040568;28;20223;-60
2023/06/25 01:03:54;;;;;;;14.87;10.63;;;22.50;99.90;;;;;;5024727;28;20326;-62
2023/06/25 01:06:29;;;;;;;14.37;10.73;;;22.40;99.90;;;;;;5039842;28;20748;-59
2023/06/25 01:08:59;;;;;;;15.37;11.27;;;22.40;99.90;;;;;;5037150;28;20202;-60
2023/06/25 01:11:28;;;;;;;12.60;10.30;;;22.40;99.90;;;;;;5028776;28;20253;-61
2023/06/25 01:13:58;;;;;;;17.97;11.40;;;22.30;1.00;;;;;;5039496;28;20215;-59
2023/06/25 01:16:26;;;;;;;16.07;10.73;;;22.20;1.00;;;;;;5041733;28;20207;-61
2023/06/25 01:18:53;;;;;;;14.70;11.30;;;22.20;1.00;;;;;;5041598;28;20224;-61
2023/06/25 01:21:31;;;;;;;15.90;11.20;;;22.10;1.00;;;;;;5023615;28;20671;-61
2023/06/25 01:23:59;;;;;;;16.23;10.97;;;22.10;1.00;;;;;;5040313;28;20205;-61
2023/06/25 01:26:26;;;;;;;14.43;11.57;;;22.10;1.00;;;;;;5042725;28;20977;-65
2023/06/25 01:28:55;;;;;;;12.73;10.47;;;22.10;1.00;;;;;;5039906;28;20242;-61
2023/06/25 01:31:30;;;;;;;12.73;10.80;;;22.00;99.90;;;;;;5042732;28;20204;-61
2023/06/25 01:33:59;;;;;;;12.83;10.43;;;21.90;99.90;;;;;;5042500;28;20231;-61
2023/06/25 01:36:26;;;;;;;14.50;10.60;;;22.00;99.90;;;;;;5042585;28;20200;-61
2023/06/25 01:38:54;;;;;;;16.30;11.63;;;22.00;99.90;;;;;;5041594;28;20207;-60
2023/06/25 01:41:21;;;;;;;14.90;11.20;;;21.90;99.90;;;;;;5042990;28;20537;-60
2023/06/25 01:43:51;;;;;;;14.70;11.40;;;21.90;99.90;;;;;;5040828;28;20205;-60
2023/06/25 01:46:18;;;;;;;12.83;11.47;;;21.80;99.90;;;;;;5041742;28;20205;-61
2023/06/25 01:48:45;;;;;;;14.57;10.70;;;21.80;1.00;;;;;;5042905;28;20204;-60
2023/06/25 01:51:14;;;;;;;14.57;11.67;;;21.80;1.00;;;;;;5042187;28;20327;-60
2023/06/25 01:53:42;;;;;;;17.43;12.07;;;21.70;1.00;;;;;;5025497;28;20251;-61
2023/06/25 01:56:09;;;;;;;14.30;12.23;;;21.70;1.00;;;;;;5042086;28;20540;-61
2023/06/25 01:58:38;;;;;;;17.37;11.63;;;21.60;1.00;;;;;;5042250;28;20205;-61
2023/06/25 02:01:05;;;;;;;15.00;11.87;;;21.50;1.00;;;;;;5040217;28;20227;-61
2023/06/25 02:03:36;;;;;;;18.27;12.87;;;21.40;1.00;;;;;;5039215;28;20620;-60
2023/06/25 02:06:03;;;;;;;16.40;12.70;;;21.40;11.60;;;;;;5042495;28;20283;-60
2023/06/25 02:08:30;;;;;;;16.93;12.70;;;21.40;99.90;;;;;;5023086;28;20264;-60
2023/06/25 02:10:56;;;;;;;16.70;12.97;;;21.40;99.90;;;;;;5040945;28;20206;-60
2023/06/25 02:13:23;;;;;;;15.53;12.27;;;21.40;99.90;;;;;;5038005;28;20216;-60
2023/06/25 02:15:50;;;;;;;15.17;12.17;;;21.40;99.90;;;;;;5040581;28;20661;-64
2023/06/25 02:18:17;;;;;;;16.23;12.93;;;21.40;1.00;;;;;;5041197;28;21233;-64
2023/06/25 02:20:44;;;;;;;16.30;13.43;;;21.40;1.00;;;;;;5024456;28;20281;-60
2023/06/25 02:23:12;;;;;;;18.47;12.67;;;21.40;35.30;;;;;;5039040;28;20346;-60
2023/06/25 02:25:39;;;;;;;18.63;12.97;;;21.30;99.90;;;;;;5022069;28;21420;-59
2023/06/25 02:28:06;;;;;;;17.63;12.73;;;21.30;99.90;;;;;;5038935;28;20216;-59
2023/06/25 02:30:33;;;;;;;16.23;13.30;;;21.30;99.90;;;;;;5037912;28;20235;-59
2023/06/25 02:33:00;;;;;;;18.90;13.10;;;21.30;99.90;;;;;;5036833;28;20255;-62
2023/06/25 02:35:28;;;;;;;15.57;12.57;;;21.30;99.90;;;;;;5041029;28;20541;-59
2023/06/25 02:37:55;;;;;;;15.50;12.80;;;21.20;1.00;;;;;;5041029;28;20209;-59
2023/06/25 02:40:29;;;;;;;17.13;13.13;;;21.20;99.90;;;;;;5039920;28;20284;-59
2023/06/25 02:42:58;;;;;;;18.07;14.10;;;21.20;1.00;;;;;;5025508;28;20538;-59
2023/06/25 02:45:25;;;;;;;19.77;13.67;;;21.20;1.00;;;;;;5038846;28;20377;-61
2023/06/25 02:47:54;;;;;;;18.03;13.17;;;21.20;1.00;;;;;;5040209;28;20221;-59
2023/06/25 02:50:24;;;;;;;15.40;12.83;;;21.10;1.00;;;;;;5039605;28;20200;-60
2023/06/25 02:52:51;;;;;;;19.07;13.83;;;21.10;1.00;;;;;;5036950;28;20596;-60
2023/06/25 02:55:18;;;;;;;16.63;13.30;;;21.10;1.00;;;;;;5040634;28;20292;-59
2023/06/25 02:57:45;;;;;;;17.43;13.77;;;21.10;1.00;;;;;;5038726;28;20207;-59
2023/06/25 03:00:12;;;;;;;17.27;13.47;;;21.10;1.00;;;;;;5038498;28;20291;-59
2023/06/25 03:02:39;;;;;;;19.83;13.40;;;21.10;1.00;;;;;;5020563;28;20276;-59
2023/06/25 03:05:08;;;;;;;20.13;13.93;;;21.10;1.00;;;;;;5040018;28;20266;-59
2023/06/25 03:07:35;;;;;;;17.57;13.47;;;21.00;1.00;;;;;;5038684;28;20195;-59
2023/06/25 03:10:02;;;;;;;16.70;13.43;;;21.00;1.00;;;;;;5040414;28;20334;-59
2023/06/25 03:12:31;;;;;;;16.37;13.70;;;20.90;1.00;;;;;;5039266;28;20208;-59
2023/06/25 03:14:58;;;;;;;17.10;13.13;;;20.90;1.00;;;;;;5038098;28;20207;-59
2023/06/25 03:17:25;;;;;;;16.23;13.23;;;20.90;1.00;;;;;;5022449;28;21111;-59
2023/06/25 03:19:52;;;;;;;21.13;14.20;;;20.90;1.00;;;;;;5023496;28;20255;-60
2023/06/25 03:22:19;;;;;;;15.77;12.90;;;20.80;1.00;;;;;;5040422;28;20198;-59
2023/06/25 03:24:49;;;;;;;16.63;13.07;;;20.80;1.00;;;;;;5041176;28;20941;-62
2023/06/25 03:27:19;;;;;;;18.63;13.70;;;20.80;1.00;;;;;;5041602;28;20239;-59
2023/06/25 03:29:48;;;;;;;17.33;13.67;;;20.70;1.00;;;;;;5039592;28;20315;-60
2023/06/25 03:32:18;;;;;;;16.13;13.07;;;20.70;1.00;;;;;;5038495;28;20235;-59
2023/06/25 03:34:45;;;;;;;16.07;12.83;;;20.70;1.00;;;;;;5036916;28;20220;-59
2023/06/25 03:37:13;;;;;;;19.40;13.60;;;20.70;1.00;;;;;;5039624;28;20212;-59
2023/06/25 03:39:43;;;;;;;18.47;14.20;;;20.70;1.00;;;;;;5039804;28;20244;-60
2023/06/25 03:42:10;;;;;;;18.23;14.47;;;20.80;1.00;;;;;;5038137;28;20391;-60
2023/06/25 03:44:37;;;;;;;17.13;13.83;;;20.70;1.00;;;;;;5037881;28;20201;-59
2023/06/25 03:47:07;;;;;;;17.67;13.63;;;20.70;1.00;;;;;;5038996;28;20208;-59
2023/06/25 03:49:34;;;;;;;15.80;13.23;;;20.70;1.00;;;;;;5038538;28;20204;-62
2023/06/25 03:52:01;;;;;;;18.33;13.17;;;20.70;1.00;;;;;;5036880;28;20267;-62
2023/06/25 03:54:28;;;;;;;18.20;13.17;;;20.60;1.00;;;;;;5020299;28;20220;-58
2023/06/25 03:56:59;;;;;;;15.40;13.07;;;20.60;1.00;;;;;;5039992;28;20192;-58
2023/06/25 03:59:28;;;;;;;15.17;12.53;;;20.60;1.00;;;;;;5040501;28;20206;-59
2023/06/25 04:01:55;;;;;;;16.30;12.97;;;20.60;1.00;;;;;;5037493;28;20674;-59
2023/06/25 04:04:28;;;;;;;18.73;13.50;;;20.60;1.00;;;;;;5037661;28;20660;-59
2023/06/25 04:06:55;;;;;;;19.23;12.30;;;20.60;1.00;;;;;;5025621;28;20200;-58
2023/06/25 04:09:22;;;;;;;14.73;12.47;;;20.60;1.00;;;;;;5039176;28;20227;-59
2023/06/25 04:11:49;;;;;;;16.67;13.13;;;20.60;1.00;;;;;;5038940;28;20250;-59
2023/06/25 04:14:17;;;;;;;15.30;12.80;;;20.70;1.00;;;;;;5041061;28;20228;-60
2023/06/25 04:16:43;;;;;;;17.50;13.03;;;20.70;1.00;;;;;;5039865;28;20203;-61
2023/06/25 04:19:11;;;;;;;16.63;12.60;;;20.70;1.00;;;;;;5042986;28;20724;-60
2023/06/25 04:21:38;;;;;;;17.80;12.40;;;20.70;1.00;;;;;;5042632;28;20555;-60
2023/06/25 04:24:05;;;;;;;16.07;12.30;;;20.70;1.00;;;;;;5041977;28;20681;-58
2023/06/25 04:26:32;;;;;;;14.57;11.90;;;20.80;1.00;;;;;;5042532;28;20242;-59
2023/06/25 04:28:59;;;;;;;16.37;12.60;;;20.80;1.00;;;;;;5042514;28;20273;-59
2023/06/25 04:31:26;;;;;;;14.77;12.47;;;20.80;1.00;;;;;;5042725;28;20376;-59
2023/06/25 04:33:54;;;;;;;16.53;12.63;;;20.80;1.00;;;;;;5041946;28;20212;-60
2023/06/25 04:36:21;;;;;;;15.70;11.70;;;20.70;99.90;;;;;;5044232;28;20655;-59
2023/06/25 04:38:51;;;;;;;15.77;11.93;;;20.80;99.90;;;;;;5042085;28;20195;-60
2023/06/25 04:41:18;;;;;;;14.40;11.93;;;20.80;99.90;;;;;;5041593;28;20220;-58
2023/06/25 04:43:44;;;;;;;17.67;12.17;;;20.80;28.60;;;;;;5041253;28;20242;-60
2023/06/25 04:46:11;;;;;;;16.20;11.97;;;20.80;99.90;;;;;;5042075;28;20215;-59
2023/06/25 04:48:42;;;;;;;13.07;10.93;;;21.00;1.00;;;;;;5040410;28;20266;-62
2023/06/25 04:51:10;;;;;;;12.50;11.20;;;21.10;99.90;;;;;;5039217;28;20721;-58
2023/06/25 04:53:37;;;;;;;12.10;10.80;;;21.10;1.00;;;;;;5042046;28;20644;-60
2023/06/25 04:56:04;;;;;;;15.07;12.33;;;21.10;29.60;;;;;;5029469;28;20649;-61
2023/06/25 04:58:31;;;;;;;12.87;11.00;;;21.20;1.00;;;;;;5026661;28;20287;-58
2023/06/25 05:00:58;;;;;;;16.20;11.97;;;21.30;1.00;;;;;;5039040;28;20200;-61
2023/06/25 05:03:25;;;;;;;13.47;11.93;;;21.40;99.90;;;;;;5042689;28;20562;-59
2023/06/25 05:05:52;;;;;;;14.23;11.97;;;21.40;99.90;;;;;;5041669;28;20223;-58
2023/06/25 05:08:20;;;;;;;16.13;12.00;;;21.40;99.90;;;;;;5034871;28;20239;-58
2023/06/25 05:10:47;;;;;;;13.10;11.40;;;21.50;99.90;;;;;;5040434;28;20269;-57
2023/06/25 05:13:14;;;;;;;13.77;11.93;;;21.50;99.90;;;;;;5026177;28;20222;-59
2023/06/25 05:15:41;;;;;;;13.47;11.80;;;21.70;99.90;;;;;;5043602;28;20258;-59
2023/06/25 05:18:09;;;;;;;14.67;11.50;;;21.80;1.00;;;;;;5025757;28;20338;-59
2023/06/25 05:20:37;;;;;;;15.20;12.37;;;21.90;1.00;;;;;;5043137;28;20212;-59
2023/06/25 05:23:09;;;;;;;14.33;11.70;;;22.00;1.00;;;;;;5025247;28;20206;-61
2023/06/25 05:25:36;;;;;;;12.83;11.20;;;22.10;1.00;;;;;;5040021;28;20294;-59
2023/06/25 05:28:04;;;;;;;14.13;11.57;;;22.20;1.00;;;;;;5043724;28;20265;-60
2023/06/25 05:30:32;;;;;;;15.20;12.13;;;22.30;1.00;;;;;;5039338;28;20232;-59
2023/06/25 05:33:01;;;;;;;16.70;12.47;;;22.40;1.00;;;;;;5041943;28;20204;-60
2023/06/25 05:35:31;;;;;;;14.97;12.50;;;22.40;1.00;;;;;;5043039;28;20234;-59
2023/06/25 05:37:59;;;;;;;18.47;13.57;;;22.40;1.00;;;;;;5042583;28;20196;-59
2023/06/25 05:40:31;;;;;;;14.27;12.77;;;22.50;1.00;;;;;;5043434;28;20674;-59
2023/06/25 05:42:58;;;;;;;14.10;12.60;;;22.40;99.90;;;;;;5043318;28;20317;-58
2023/06/25 05:45:28;;;;;;;15.67;12.93;;;22.40;99.90;;;;;;5042216;28;20211;-57
2023/06/25 05:47:55;;;;;;;16.03;12.97;;;22.50;1.00;;;;;;5042247;28;20228;-60
2023/06/25 05:50:22;;;;;;;19.27;13.47;;;22.70;1.00;;;;;;5042715;28;20291;-59
2023/06/25 05:52:49;;;;;;;14.80;12.70;;;22.80;1.00;;;;;;5041321;28;20352;-60
2023/06/25 05:55:16;;;;;;;15.67;12.67;;;22.90;1.00;;;;;;5040754;28;20213;-57
2023/06/25 05:57:43;;;;;;;14.43;12.90;;;22.90;99.90;;;;;;5041318;28;20834;-60
2023/06/25 06:00:11;;;;;;;15.40;13.53;;;22.90;99.90;;;;;;5039825;28;20213;-57
2023/06/25 06:02:37;;;;;;;16.40;13.13;;;22.90;99.90;;;;;;5033471;28;20201;-57
2023/06/25 06:05:06;;;;;;;16.07;14.00;;;23.00;99.90;;;;;;5040071;28;20213;-62
2023/06/25 06:07:34;;;;;;;15.30;13.37;;;23.10;99.90;;;;;;5040010;28;20207;-57
2023/06/25 06:10:04;;;;;;;16.47;12.57;;;23.00;99.90;;;;;;5042141;28;20215;-61
2023/06/25 06:12:32;;;;;;;16.00;13.30;;;23.00;99.90;;;;;;5041787;28;20295;-57
2023/06/25 06:15:02;;;;;;;14.50;12.60;;;23.00;99.90;;;;;;5041121;28;20246;-63
2023/06/25 06:17:31;;;;;;;13.70;12.30;;;23.10;99.90;;;;;;5037646;28;20670;-65
2023/06/25 06:19:58;;;;;;;17.97;13.03;;;23.10;99.90;;;;;;5038967;28;20220;-63
2023/06/25 06:22:35;;;;;;;15.37;13.60;;;23.40;99.90;;;;;;5021137;28;20206;-64
2023/06/25 06:25:08;;;;;;;14.47;12.90;;;23.40;1.00;;;;;;5040070;28;20218;-64
2023/06/25 06:27:46;;;;;;;15.33;11.40;;;23.40;23.10;;;;;;5041295;28;20223;-63
2023/06/25 06:30:14;;;;;;;13.50;12.10;;;23.50;99.90;;;;;;5040094;28;20239;-62
2023/06/25 06:32:41;;;;;;;17.47;14.03;;;23.70;99.90;;;;;;5019475;28;20208;-62
2023/06/25 06:35:08;;;;;;;20.13;13.57;;;23.70;1.00;;;;;;5039686;28;20675;-61
2023/06/25 06:37:35;;;;;;;14.20;12.60;;;23.60;1.00;;;;;;5036346;28;20200;-61
2023/06/25 06:40:02;;;;;;;15.20;13.00;;;23.80;1.00;;;;;;5022537;28;20204;-62
2023/06/25 06:42:29;;;;;;;15.03;12.80;;;23.90;1.00;;;;;;5037621;28;20207;-60
2023/06/25 06:44:56;;;;;;;14.57;12.20;;;23.80;1.00;;;;;;5033189;28;20212;-61
2023/06/25 06:47:23;;;;;;;17.73;13.40;;;24.00;1.00;;;;;;5020743;28;20208;-62
2023/06/25 06:49:50;;;;;;;14.47;12.40;;;24.20;1.00;;;;;;5034136;28;20201;-61
2023/06/25 06:52:24;;;;;;;15.40;12.40;;;24.30;1.00;;;;;;5032736;28;20214;-63
2023/06/25 06:54:51;;;;;;;15.80;11.80;;;24.20;1.00;;;;;;5035850;28;20254;-63
2023/06/25 06:57:24;;;;;;;15.17;12.77;;;24.30;1.00;;;;;;5036585;28;21051;-60
2023/06/25 06:59:51;;;;;;;15.73;13.07;;;24.40;1.00;;;;;;5037254;28;20549;-63
2023/06/25 07:02:21;;;;;;;14.20;12.70;;;24.70;1.00;;;;;;5019466;28;20547;-61
2023/06/25 07:04:48;;;;;;;13.80;11.67;;;24.90;1.00;;;;;;5033098;28;20235;-61
2023/06/25 07:07:15;;;;;;;14.67;12.80;;;24.90;1.00;;;;;;5032464;28;20295;-61
2023/06/25 07:09:51;;;;;;;16.17;13.13;;;24.90;1.00;;;;;;5018761;28;20687;-61
2023/06/25 07:12:21;;;;;;;14.90;13.33;;;25.10;1.00;;;;;;5036325;28;20211;-61
2023/06/25 07:14:48;;;;;;;16.97;12.73;;;25.20;1.00;;;;;;5036657;28;21150;-63
2023/06/25 07:17:18;;;;;;;15.90;13.37;;;25.40;1.00;;;;;;5035795;28;20296;-61
2023/06/25 07:19:45;;;;;;;13.90;11.57;;;25.70;1.00;;;;;;5037898;28;20234;-61
2023/06/25 07:22:13;;;;;;;15.83;13.67;;;25.90;1.00;;;;;;5022944;28;20215;-61
2023/06/25 07:24:40;;;;;;;16.07;13.43;;;26.00;1.00;;;;;;5039240;28;20709;-62
2023/06/25 07:27:10;;;;;;;14.53;13.03;;;25.70;1.00;;;;;;5033448;28;20234;-61
2023/06/25 07:29:37;;;;;;;14.27;12.77;;;25.70;1.00;;;;;;5036662;28;20244;-63
2023/06/25 07:32:11;;;;;;;13.30;11.67;;;25.80;1.00;;;;;;4664324;28;10000062;-61
2023/06/25 07:34:37;;;;;;;16.97;13.17;;;26.10;1.00;;;;;;5030937;28;20212;-60
2023/06/25 07:37:07;;;;;;;14.90;10.33;;;26.90;1.00;;;;;;5037414;28;20207;-59
2023/06/25 07:39:35;;;;;;;13.80;10.83;;;27.80;1.00;;;;;;5031249;28;20259;-57
2023/06/25 07:42:02;;;;;;;13.53;11.67;;;28.00;1.00;;;;;;5010516;28;20570;-59
2023/06/25 07:44:32;;;;;;;11.90;10.07;;;27.60;1.00;;;;;;5029666;28;20626;-57
2023/06/25 07:47:19;;;;;;;12.67;10.23;;;27.70;1.00;;;;;;5020355;28;20307;-59
2023/06/25 07:49:49;;;;;;;12.13;10.47;;;28.00;1.00;;;;;;5016832;28;20219;-59
2023/06/25 07:52:18;;;;;;;12.17;8.60;;;28.10;1.00;;;;;;5004958;28;20911;-60
2023/06/25 07:54:45;;;;;;;12.23;9.27;;;29.20;1.00;;;;;;5010812;28;20262;-59
2023/06/25 07:57:12;;;;;;;13.33;9.97;;;30.00;99.90;;;;;;5035119;28;20234;-60
2023/06/25 07:59:39;;;;;;;13.40;10.27;;;29.20;99.90;;;;;;5031555;28;20222;-58
2023/06/25 08:02:18;;;;;;;13.50;10.40;;;28.30;99.90;;;;;;5030314;28;20764;-60
2023/06/25 08:04:45;;;;;;;10.52;9.00;;;29.50;99.90;;;;;;5033891;28;20239;-58
2023/06/25 08:07:12;;;;;;;12.52;10.07;;;28.70;99.90;;;;;;5032635;28;20234;-59
2023/06/25 08:09:40;;;;;;;11.25;9.45;;;30.50;99.90;;;;;;5034360;28;20214;-59
2023/06/25 08:12:10;;;;;;;13.50;9.68;;;29.70;99.90;;;;;;5031927;28;20211;-62
2023/06/25 08:14:45;;;;;;;11.18;9.27;;;29.50;99.90;;;;;;5017774;28;20309;-61
2023/06/25 08:17:12;;;;;;;12.88;10.18;;;29.90;99.90;;;;;;5031912;28;20749;-56
2023/06/25 08:19:42;;;;;;;11.57;9.82;;;30.60;99.90;;;;;;5033541;28;20216;-57
2023/06/25 08:22:09;;;;;;;11.63;9.38;;;31.30;99.90;;;;;;5035842;28;20207;-57
2023/06/25 08:24:36;;;;;;;10.48;9.07;;;31.10;99.90;;;;;;5027982;28;20208;-57
2023/06/25 08:27:06;;;;;;;12.35;10.35;;;31.00;99.90;;;;;;5033903;28;20211;-60
2023/06/25 08:29:33;;;;;;;12.35;9.52;;;29.70;99.90;;;;;;5033858;28;20244;-60
2023/06/25 08:32:00;;;;;;;10.98;9.20;;;30.50;99.90;;;;;;5020877;28;20204;-58
2023/06/25 08:34:30;;;;;;;13.35;10.30;;;30.50;99.90;;;;;;5022619;28;20353;-56
2023/06/25 08:36:59;;;;;;;12.20;8.80;;;30.90;99.90;;;;;;5022626;28;20192;-58
2023/06/25 08:39:27;;;;;;;12.45;10.30;;;31.30;99.90;;;;;;5020177;28;20218;-58
2023/06/25 08:41:54;;;;;;;8.32;6.88;;;31.90;99.90;;;;;;5037007;28;20204;-57
2023/06/25 08:44:21;;;;;;;9.00;8.10;;;31.80;99.90;;;;;;5038333;28;20318;-61
2023/06/25 08:46:49;;;;;;;9.80;7.28;;;31.60;99.90;;;;;;5036630;28;20620;-61
2023/06/25 08:49:17;;;;;;;7.60;6.88;;;32.30;99.90;;;;;;5036889;28;20214;-61
2023/06/25 08:51:50;;;;;;;13.82;9.00;;;32.20;99.90;;;;;;5033017;28;20223;-61
2023/06/25 08:54:17;;;;;;;10.82;8.07;;;31.00;99.90;;;;;;5034712;28;20223;-62
2023/06/25 08:56:44;;;;;;;8.95;8.05;;;31.10;99.90;;;;;;5034570;28;20750;-61
2023/06/25 08:59:11;;;;;;;8.80;7.90;;;31.40;99.90;;;;;;5037046;28;20200;-60
2023/06/25 09:01:38;;;;;;;10.60;8.57;;;31.30;99.90;;;;;;5040053;28;20203;-64
2023/06/25 09:04:07;;;;;;;7.45;6.65;;;31.50;99.90;;;;;;5037389;28;20613;-61
2023/06/25 09:06:40;;;;;;;12.00;6.78;;;31.40;99.90;;;;;;5038064;28;20193;-61
2023/06/25 09:09:31;;;;;;;10.68;7.50;;;31.80;99.90;;;;;;5025644;28;20204;-61
2023/06/25 09:11:58;;;;;;;7.95;7.15;;;33.30;99.90;;;;;;5031113;28;20628;-59
2023/06/25 09:14:25;;;;;;;10.10;8.15;;;33.10;99.90;;;;;;5035006;28;20274;-61
2023/06/25 09:16:54;;;;;;;10.50;8.43;;;33.20;99.90;;;;;;5031810;28;20224;-59
2023/06/25 09:19:21;;;;;;;7.70;6.82;;;31.40;99.90;;;;;;5018627;28;21084;-61
2023/06/25 09:21:51;;;;;;;7.55;6.40;;;32.30;99.90;;;;;;5019951;28;20259;-58
2023/06/25 09:24:22;;;;;;;8.35;6.30;;;32.10;99.90;;;;;;5031493;28;20805;-59
2023/06/25 09:26:54;;;;;;;8.35;6.82;;;32.30;99.90;;;;;;5035739;28;20214;-61
2023/06/25 09:29:22;;;;;;;6.95;6.32;;;32.00;99.90;;;;;;5039013;28;20242;-62
2023/06/25 09:31:49;;;;;;;7.72;6.13;;;31.30;99.90;;;;;;5036272;28;20334;-59
2023/06/25 09:34:18;;;;;;;7.50;5.40;;;31.70;99.90;;;;;;5035139;28;20205;-60
2023/06/25 09:36:46;;;;;;;6.55;5.53;;;32.10;99.90;;;;;;5040413;28;20208;-60
2023/06/25 09:39:13;;;;;;;4.38;3.92;;;32.30;99.90;;;;;;5022362;28;20211;-59
2023/06/25 09:41:41;;;;;;;6.13;4.38;;;32.00;99.90;;;;;;5018780;28;20206;-58
2023/06/25 09:44:09;;;;;;;4.43;3.95;;;32.70;99.90;;;;;;5035549;28;20215;-59
2023/06/25 09:46:40;;;;;;;7.28;4.43;;;32.30;99.90;;;;;;5015339;28;20199;-59
2023/06/25 09:49:18;;;;;;;6.15;3.95;;;31.90;99.90;;;;;;5038195;28;20212;-59
2023/06/25 09:51:58;;;;;;;6.60;4.22;;;32.20;99.90;;;;;;5037111;28;21044;-60
2023/06/25 09:54:26;;;;;;;4.60;4.10;;;31.70;99.90;;;;;;5036822;28;20227;-63
2023/06/25 09:56:56;;;;;;;4.93;3.90;;;32.00;99.90;;;;;;5036600;28;20211;-59
2023/06/25 09:59:24;;;;;;;5.57;4.03;;;31.90;99.90;;;;;;5033311;28;20196;-59
2023/06/25 10:01:52;;;;;;;6.43;4.05;;;31.90;99.90;;;;;;5035810;28;21019;-60
2023/06/25 10:04:20;;;;;;;4.85;4.15;;;32.00;99.90;;;;;;5034729;28;20200;-59
2023/06/25 10:06:48;;;;;;;7.95;4.10;;;31.40;99.90;;;;;;5036450;28;20214;-59
2023/06/25 10:09:15;;;;;;;4.68;4.18;;;31.30;99.90;;;;;;5038137;28;20197;-59
2023/06/25 10:11:52;;;;;;;4.88;4.38;;;32.00;99.90;;;;;;5037894;28;20269;-60
2023/06/25 10:14:19;;;;;;;4.75;3.83;;;31.60;99.90;;;;;;5018849;28;20222;-61
2023/06/25 10:16:57;;;;;;;4.53;4.05;;;31.30;99.90;;;;;;5035610;28;20231;-59
2023/06/25 10:19:29;;;;;;;4.65;4.07;;;31.40;99.90;;;;;;5020804;28;20223;-60
2023/06/25 10:22:05;;;;;;;4.60;4.20;;;31.20;99.90;;;;;;5019902;28;20621;-63
2023/06/25 10:24:48;;;;;;;3.90;3.60;;;31.20;99.90;;;;;;5033605;28;20203;-64
2023/06/25 10:27:25;;;;;;;4.60;3.63;;;31.30;99.90;;;;;;5034826;28;20211;-59
2023/06/25 10:29:53;;;;;;;4.05;3.72;;;31.00;99.90;;;;;;5037802;28;20458;-62
2023/06/25 10:32:22;;;;;;;4.47;3.88;;;31.30;99.90;;;;;;5032751;28;20211;-61
2023/06/25 10:34:58;;;;;;;4.15;3.70;;;31.70;99.90;;;;;;5029975;28;20221;-61
2023/06/25 10:37:30;;;;;;;5.00;3.92;;;31.50;99.90;;;;;;5037430;28;20250;-60
2023/06/25 10:40:15;;;;;;;4.03;3.50;;;31.20;99.90;;;;;;5037535;28;20203;-64
2023/06/25 10:42:42;;;;;;;4.05;3.63;;;31.70;99.90;;;;;;5032705;28;20200;-61
2023/06/25 10:45:12;;;;;;;4.95;3.85;;;31.80;99.90;;;;;;5039991;28;20207;-61
2023/06/25 10:47:39;;;;;;;4.80;4.05;;;31.50;99.90;;;;;;5017046;28;20774;-61
2023/06/25 10:50:06;;;;;;;3.97;3.58;;;31.50;99.90;;;;;;5036665;28;20685;-61
2023/06/25 10:52:34;;;;;;;4.78;3.47;;;31.30;99.90;;;;;;5005061;28;20648;-60
2023/06/25 10:55:02;;;;;;;3.95;3.65;;;31.10;99.90;;;;;;5031841;28;20208;-61
2023/06/25 10:57:31;;;;;;;4.47;3.97;;;31.40;99.90;;;;;;5026268;28;20196;-61
2023/06/25 10:59:59;;;;;;;4.22;3.63;;;31.50;99.90;;;;;;5034066;28;20635;-61
2023/06/25 11:02:26;;;;;;;4.32;3.78;;;32.10;99.90;;;;;;5033322;28;20258;-61
2023/06/25 11:04:58;;;;;;;4.10;3.53;;;32.50;99.90;;;;;;5017020;28;20262;-62
2023/06/25 11:07:27;;;;;;;5.07;3.65;;;32.10;99.90;;;;;;5037287;28;20208;-61
2023/06/25 11:09:56;;;;;;;4.60;4.00;;;31.70;99.90;;;;;;5040648;28;20200;-61
2023/06/25 11:12:23;;;;;;;5.93;3.83;;;31.60;99.90;;;;;;5023495;28;20599;-60
2023/06/25 11:14:50;;;;;;;3.63;3.33;;;32.20;99.90;;;;;;5017493;28;20227;-61
2023/06/25 11:17:18;;;;;;;3.95;3.58;;;31.80;99.90;;;;;;5018955;28;20208;-58
2023/06/25 11:19:53;;;;;;;4.70;3.88;;;31.70;99.90;;;;;;5035604;28;20227;-58
2023/06/25 11:22:20;;;;;;;5.20;4.00;;;32.30;99.90;;;;;;5036598;28;20192;-58
2023/06/25 11:24:53;;;;;;;4.70;4.20;;;31.90;99.90;;;;;;5036544;28;20211;-65
2023/06/25 11:27:28;;;;;;;5.10;3.75;;;32.20;99.90;;;;;;5035643;28;20219;-64
2023/06/25 11:29:57;;;;;;;3.75;3.45;;;32.70;99.90;;;;;;5035336;28;20670;-63
2023/06/25 11:32:27;;;;;;;6.30;3.45;;;33.90;99.90;;;;;;5032706;28;20232;-62
2023/06/25 11:34:59;;;;;;;6.20;4.00;;;33.60;99.90;;;;;;5006374;28;20324;-65
2023/06/25 11:37:31;;;;;;;4.72;3.67;;;34.30;99.90;;;;;;5033591;28;20203;-60
2023/06/25 11:39:58;;;;;;;6.07;4.20;;;33.60;99.90;;;;;;5035299;28;22575;-60
2023/06/25 11:42:25;;;;;;;4.47;3.85;;;32.90;99.90;;;;;;5035962;28;20219;-62
2023/06/25 11:45:03;;;;;;;4.38;3.97;;;32.70;99.90;;;;;;5017157;28;20619;-63
2023/06/25 11:47:31;;;;;;;4.22;3.85;;;33.40;99.90;;;;;;5021382;28;20197;-63
2023/06/25 11:49:59;;;;;;;4.25;3.85;;;32.90;99.90;;;;;;5018804;28;20262;-62
2023/06/25 11:52:26;;;;;;;4.60;4.15;;;33.00;99.90;;;;;;5015316;28;20208;-62
2023/06/25 11:54:53;;;;;;;4.43;3.95;;;33.30;99.90;;;;;;5034102;28;20250;-60
2023/06/25 11:57:20;;;;;;;5.55;4.00;;;33.40;99.90;;;;;;5021491;28;20216;-61
2023/06/25 11:59:47;;;;;;;6.63;4.40;;;34.10;99.90;;;;;;5037573;28;20207;-63
2023/06/25 12:02:17;;;;;;;4.07;3.67;;;33.70;99.90;;;;;;5033438;28;20337;-62
2023/06/25 12:04:44;;;;;;;4.28;3.88;;;32.40;99.90;;;;;;5015482;28;20212;-62
2023/06/25 12:07:10;;;;;;;5.47;4.03;;;32.50;99.90;;;;;;5035431;28;20203;-61
2023/06/25 12:09:38;;;;;;;3.60;3.30;;;32.90;99.90;;;;;;5036316;28;20650;-62
2023/06/25 12:12:05;;;;;;;5.53;4.00;;;34.40;99.90;;;;;;5018014;28;20599;-63
2023/06/25 12:14:32;;;;;;;5.88;3.67;;;34.70;99.90;;;;;;5035073;28;20287;-62
2023/06/25 12:16:59;;;;;;;5.15;4.30;;;33.60;99.90;;;;;;5020374;28;20227;-61
2023/06/25 12:19:27;;;;;;;4.13;3.72;;;33.50;99.90;;;;;;5032503;28;20335;-62
2023/06/25 12:21:56;;;;;;;4.15;3.83;;;32.90;99.90;;;;;;5032599;28;20648;-64
2023/06/25 12:24:26;;;;;;;4.95;3.90;;;32.80;99.90;;;;;;5032272;28;20775;-63
2023/06/25 12:26:55;;;;;;;4.13;3.72;;;33.30;99.90;;;;;;5032364;28;20200;-61
2023/06/25 12:29:23;;;;;;;4.20;3.50;;;33.80;99.90;;;;;;5036561;28;20251;-60
2023/06/25 12:31:50;;;;;;;6.03;3.65;;;33.90;99.90;;;;;;5034824;28;20673;-61
2023/06/25 12:34:18;;;;;;;4.78;4.35;;;34.10;99.90;;;;;;5031587;28;20231;-60
2023/06/25 12:36:48;;;;;;;4.65;3.63;;;33.60;99.90;;;;;;5039307;28;20215;-60
2023/06/25 12:39:15;;;;;;;4.18;3.78;;;34.00;99.90;;;;;;5036369;28;20200;-60
2023/06/25 12:41:45;;;;;;;7.00;3.70;;;33.90;99.90;;;;;;5036680;28;20201;-60
2023/06/25 12:44:12;;;;;;;4.53;4.00;;;33.40;99.90;;;;;;5037303;28;22105;-60
2023/06/25 12:46:39;;;;;;;4.50;3.58;;;34.20;99.90;;;;;;5040612;28;20873;-60